createdAt,value
2018-04-07T00:00:38.655Z,68.86
2018-04-07T00:01:38.650Z,69.15
2018-04-07T00:02:38.648Z,68.58
2018-04-07T00:03:38.651Z,68.77
2018-04-07T00:04:59.646Z,69.15
2018-04-07T00:05:38.633Z,69.15
2018-04-07T00:06:38.621Z,68.96
2018-04-07T00:07:38.609Z,69.24
2018-04-07T00:08:38.617Z,69.24
2018-04-07T00:09:38.607Z,69.34
2018-04-07T00:10:59.607Z,69.34
2018-04-07T00:11:38.600Z,69.34
2018-04-07T00:12:38.582Z,68.77
2018-04-07T00:13:38.579Z,68.96
2018-04-07T00:14:38.576Z,67.91
2018-04-07T00:15:38.569Z,68.58
2018-04-07T00:16:59.568Z,68.19
2018-04-07T00:17:38.561Z,68.77
2018-04-07T00:18:38.545Z,68.67
2018-04-07T00:19:38.540Z,68.29
2018-04-07T00:20:38.536Z,67.82
2018-04-07T00:21:38.536Z,68.39
2018-04-07T00:22:59.530Z,67.91
2018-04-07T00:23:38.519Z,67.91
2018-04-07T00:24:38.512Z,67.72
2018-04-07T00:25:38.498Z,67.63
2018-04-07T00:26:38.495Z,67.63
2018-04-07T00:27:38.532Z,67.44
2018-04-07T00:28:59.495Z,67.25
2018-04-07T00:29:38.480Z,67.44
2018-04-07T00:30:38.476Z,67.44
2018-04-07T00:31:38.469Z,67.25
2018-04-07T00:32:38.461Z,67.53
2018-04-07T00:33:38.450Z,68.10
2018-04-07T00:34:59.472Z,68.39
2018-04-07T00:35:38.438Z,68.67
2018-04-07T00:36:38.437Z,68.67
2018-04-07T00:37:38.434Z,68.48
2018-04-07T00:38:38.420Z,68.67
2018-04-07T00:39:38.419Z,68.77
2018-04-07T00:40:59.408Z,69.34
2018-04-07T00:41:38.397Z,69.34
2018-04-07T00:42:38.398Z,69.43
2018-04-07T00:43:38.392Z,69.71
2018-04-07T00:44:38.386Z,69.53
2018-04-07T00:45:38.381Z,69.62
2018-04-07T00:46:59.382Z,69.62
2018-04-07T00:47:38.364Z,70.10
2018-04-07T00:48:38.363Z,70.00
2018-04-07T00:49:38.349Z,69.91
2018-04-07T00:50:38.347Z,69.71
2018-04-07T00:51:38.344Z,70.19
2018-04-07T00:52:59.332Z,70.73
2018-04-07T00:53:38.318Z,70.38
2018-04-07T00:54:38.316Z,71.11
2018-04-07T00:55:38.316Z,70.92
2018-04-07T00:56:38.312Z,71.11
2018-04-07T00:57:38.302Z,71.39
2018-04-07T00:58:59.298Z,71.96
2018-04-07T00:59:38.282Z,72.06
2018-04-07T01:00:38.284Z,72.53
2018-04-07T01:01:38.274Z,72.06
2018-04-07T01:02:38.269Z,72.53
2018-04-07T01:03:38.263Z,72.34
2018-04-07T01:04:59.263Z,72.72
2018-04-07T01:05:38.253Z,72.15
2018-04-07T01:06:38.237Z,72.53
2018-04-07T01:07:38.232Z,71.96
2018-04-07T01:08:38.223Z,72.44
2018-04-07T01:09:38.232Z,72.63
2018-04-07T01:10:59.227Z,72.81
2018-04-07T01:11:38.232Z,72.81
2018-04-07T01:12:38.198Z,72.91
2018-04-07T01:13:38.199Z,73.57
2018-04-07T01:14:38.203Z,73.19
2018-04-07T01:15:38.184Z,74.24
2018-04-07T01:16:59.186Z,73.57
2018-04-07T01:17:38.168Z,72.72
2018-04-07T01:18:38.165Z,73.86
2018-04-07T01:19:38.174Z,73.29
2018-04-07T01:20:38.145Z,73.67
2018-04-07T01:21:38.147Z,73.57
2018-04-07T01:22:59.146Z,72.91
2018-04-07T01:23:38.132Z,72.91
2018-04-07T01:24:38.125Z,72.53
2018-04-07T01:25:38.115Z,73.86
2018-04-07T01:26:38.110Z,73.38
2018-04-07T01:27:38.109Z,72.53
2018-04-07T01:28:59.110Z,72.53
2018-04-07T01:29:38.097Z,72.72
2018-04-07T01:30:38.099Z,72.72
2018-04-07T01:31:38.080Z,72.81
2018-04-07T01:32:38.075Z,72.81
2018-04-07T01:33:38.073Z,72.34
2018-04-07T01:34:59.069Z,73.10
2018-04-07T01:35:38.056Z,72.53
2018-04-07T01:36:38.042Z,72.63
2018-04-07T01:37:38.046Z,72.34
2018-04-07T01:38:38.057Z,72.34
2018-04-07T01:39:38.032Z,72.63
2018-04-07T01:40:59.031Z,72.09
2018-04-07T01:41:38.029Z,71.77
2018-04-07T01:42:38.026Z,72.06
2018-04-07T01:43:38.004Z,71.86
2018-04-07T01:44:37.997Z,72.34
2018-04-07T01:45:37.992Z,72.63
2018-04-07T01:46:58.987Z,72.53
2018-04-07T01:47:37.985Z,72.81
2018-04-07T01:48:37.972Z,72.81
2018-04-07T01:49:37.970Z,72.44
2018-04-07T01:50:37.964Z,72.44
2018-04-07T01:51:37.947Z,71.96
2018-04-07T01:52:58.946Z,73.48
2018-04-07T01:53:37.935Z,74.05
2018-04-07T01:54:37.928Z,73.96
2018-04-07T01:55:37.923Z,74.62
2018-04-07T01:56:37.911Z,73.86
2018-04-07T01:57:37.909Z,73.96
2018-04-07T01:58:58.905Z,73.38
2018-04-07T01:59:37.900Z,73.00
2018-04-07T02:00:37.894Z,73.38
2018-04-07T02:01:37.894Z,72.72
2018-04-07T02:02:37.881Z,72.53
2018-04-07T02:03:37.870Z,72.44
2018-04-07T02:04:58.877Z,73.19
2018-04-07T02:05:37.859Z,71.81
2018-04-07T02:06:37.853Z,72.00
2018-04-07T02:07:37.849Z,72.06
2018-04-07T02:08:37.850Z,71.86
2018-04-07T02:09:37.833Z,72.15
2018-04-07T02:10:58.832Z,72.25
2018-04-07T02:11:37.823Z,71.86
2018-04-07T02:12:37.810Z,71.58
2018-04-07T02:13:37.808Z,72.25
2018-04-07T02:14:37.798Z,72.72
2018-04-07T02:15:37.790Z,72.06
2018-04-07T02:16:58.790Z,71.62
2018-04-07T02:17:37.773Z,71.01
2018-04-07T02:18:37.775Z,70.95
2018-04-07T02:19:37.760Z,70.82
2018-04-07T02:20:37.765Z,70.00
2018-04-07T02:21:37.757Z,71.77
2018-04-07T02:22:58.757Z,71.20
2018-04-07T02:23:37.744Z,71.04
2018-04-07T02:24:37.731Z,71.96
2018-04-07T02:25:37.722Z,72.15
2018-04-07T02:26:37.738Z,71.96
2018-04-07T02:27:37.714Z,71.20
2018-04-07T02:28:58.716Z,71.86
2018-04-07T02:29:37.708Z,71.20
2018-04-07T02:30:37.690Z,71.52
2018-04-07T02:31:37.693Z,72.34
2018-04-07T02:32:37.683Z,72.53
2018-04-07T02:33:37.679Z,72.81
2018-04-07T02:34:58.675Z,71.48
2018-04-07T02:35:37.659Z,72.25
2018-04-07T02:36:37.657Z,72.06
2018-04-07T02:37:37.647Z,71.58
2018-04-07T02:38:37.645Z,72.15
2018-04-07T02:39:37.636Z,72.06
2018-04-07T02:40:58.644Z,72.15
2018-04-07T02:41:37.624Z,72.81
2018-04-07T02:42:37.628Z,71.96
2018-04-07T02:43:37.614Z,71.30
2018-04-07T02:44:37.608Z,71.58
2018-04-07T02:45:37.584Z,71.96
2018-04-07T02:46:58.596Z,72.34
2018-04-07T02:47:37.592Z,73.57
2018-04-07T02:48:37.587Z,73.00
2018-04-07T02:49:37.573Z,73.10
2018-04-07T02:50:37.569Z,73.19
2018-04-07T02:51:37.564Z,72.91
2018-04-07T02:52:58.560Z,72.81
2018-04-07T02:53:37.544Z,73.38
2018-04-07T02:54:37.540Z,73.48
2018-04-07T02:55:37.535Z,74.33
2018-04-07T02:56:37.526Z,73.96
2018-04-07T02:57:37.518Z,73.96
2018-04-07T02:58:58.516Z,73.76
2018-04-07T02:59:37.505Z,73.19
2018-04-07T03:00:37.507Z,73.96
2018-04-07T03:01:37.489Z,73.76
2018-04-07T03:02:37.488Z,73.96
2018-04-07T03:03:37.483Z,74.52
2018-04-07T03:04:58.475Z,75.00
2018-04-07T03:05:37.469Z,73.96
2018-04-07T03:06:37.459Z,73.96
2018-04-07T03:07:37.454Z,75.09
2018-04-07T03:08:37.452Z,75.38
2018-04-07T03:09:37.438Z,75.57
2018-04-07T03:10:58.434Z,75.76
2018-04-07T03:11:37.423Z,75.67
2018-04-07T03:12:37.412Z,74.90
2018-04-07T03:13:37.411Z,75.67
2018-04-07T03:14:37.406Z,75.38
2018-04-07T03:15:37.403Z,75.57
2018-04-07T03:16:58.399Z,75.47
2018-04-07T03:17:37.385Z,75.28
2018-04-07T03:18:37.382Z,75.76
2018-04-07T03:19:37.366Z,76.80
2018-04-07T03:20:37.367Z,76.14
2018-04-07T03:21:37.352Z,76.52
2018-04-07T03:22:58.359Z,77.37
2018-04-07T03:23:37.364Z,78.03
2018-04-07T03:24:37.337Z,78.47
2018-04-07T03:25:37.334Z,78.03
2018-04-07T03:26:37.331Z,78.13
2018-04-07T03:27:37.321Z,77.84
2018-04-07T03:28:58.324Z,76.42
2018-04-07T03:29:37.307Z,75.76
2018-04-07T03:30:37.299Z,74.81
2018-04-07T03:31:37.300Z,75.28
2018-04-07T03:32:37.286Z,74.90
2018-04-07T03:33:37.286Z,75.00
2018-04-07T03:34:58.283Z,74.81
2018-04-07T03:35:37.265Z,75.00
2018-04-07T03:36:37.254Z,75.19
2018-04-07T03:37:37.254Z,74.62
2018-04-07T03:38:37.248Z,73.76
2018-04-07T03:39:37.231Z,73.76
2018-04-07T03:40:58.243Z,73.96
2018-04-07T03:41:37.233Z,73.29
2018-04-07T03:42:37.218Z,74.52
2018-04-07T03:43:37.210Z,73.96
2018-04-07T03:44:37.208Z,74.43
2018-04-07T03:45:37.200Z,74.62
2018-04-07T03:46:58.188Z,74.81
2018-04-07T03:47:37.184Z,74.62
2018-04-07T03:48:37.184Z,75.19
2018-04-07T03:49:37.175Z,74.43
2018-04-07T03:50:37.171Z,74.43
2018-04-07T03:51:37.162Z,74.43
2018-04-07T03:52:58.169Z,74.71
2018-04-07T03:53:37.156Z,74.24
2018-04-07T03:54:37.140Z,74.52
2018-04-07T03:55:37.128Z,75.19
2018-04-07T03:56:37.122Z,74.24
2018-04-07T03:57:37.118Z,74.05
2018-04-07T03:58:58.120Z,74.62
2018-04-07T03:59:37.105Z,73.57
2018-04-07T04:00:37.102Z,73.00
2018-04-07T04:01:37.091Z,72.63
2018-04-07T04:02:37.088Z,72.91
2018-04-07T04:03:37.075Z,71.86
2018-04-07T04:04:58.078Z,72.25
2018-04-07T04:05:37.063Z,72.34
2018-04-07T04:06:37.051Z,72.25
2018-04-07T04:07:37.052Z,72.44
2018-04-07T04:08:37.046Z,71.77
2018-04-07T04:09:37.039Z,71.96
2018-04-07T04:10:58.042Z,72.15
2018-04-07T04:11:37.028Z,70.92
2018-04-07T04:12:37.020Z,71.11
2018-04-07T04:13:37.008Z,69.91
2018-04-07T04:14:37.006Z,69.62
2018-04-07T04:15:36.999Z,69.62
2018-04-07T04:16:57.998Z,69.24
2018-04-07T04:17:36.982Z,69.15
2018-04-07T04:18:36.981Z,69.43
2018-04-07T04:19:36.977Z,70.00
2018-04-07T04:20:36.962Z,69.21
2018-04-07T04:21:36.965Z,69.78
2018-04-07T04:22:57.963Z,70.15
2018-04-07T04:23:36.950Z,70.19
2018-04-07T04:24:36.943Z,70.06
2018-04-07T04:25:36.928Z,69.81
2018-04-07T04:26:36.929Z,69.43
2018-04-07T04:27:36.935Z,68.64
2018-04-07T04:28:57.925Z,68.67
2018-04-07T04:29:36.912Z,67.88
2018-04-07T04:30:36.902Z,68.29
2018-04-07T04:31:36.890Z,67.88
2018-04-07T04:32:36.888Z,67.06
2018-04-07T04:33:36.881Z,67.34
2018-04-07T04:34:57.882Z,66.77
2018-04-07T04:35:36.868Z,67.44
2018-04-07T04:36:36.869Z,67.63
2018-04-07T04:37:36.861Z,67.91
2018-04-07T04:38:36.849Z,67.82
2018-04-07T04:39:36.843Z,67.44
2018-04-07T04:40:57.845Z,66.87
2018-04-07T04:41:36.825Z,66.96
2018-04-07T04:42:36.817Z,66.87
2018-04-07T04:43:36.814Z,66.30
2018-04-07T04:44:36.812Z,66.30
2018-04-07T04:45:36.808Z,65.73
2018-04-07T04:46:57.810Z,65.25
2018-04-07T04:47:36.793Z,64.97
2018-04-07T04:48:36.794Z,65.16
2018-04-07T04:49:36.773Z,64.59
2018-04-07T04:50:36.768Z,64.40
2018-04-07T04:51:36.773Z,64.97
2018-04-07T04:52:57.770Z,65.16
2018-04-07T04:53:36.755Z,63.92
2018-04-07T04:54:36.744Z,64.62
2018-04-07T04:55:36.740Z,64.24
2018-04-07T04:56:36.741Z,64.43
2018-04-07T04:57:36.733Z,63.86
2018-04-07T04:58:57.726Z,63.86
2018-04-07T04:59:36.733Z,64.05
2018-04-07T05:00:36.704Z,63.48
2018-04-07T05:01:36.700Z,62.91
2018-04-07T05:02:36.682Z,63.67
2018-04-07T05:03:36.695Z,63.20
2018-04-07T05:04:57.686Z,62.72
2018-04-07T05:05:36.678Z,61.96
2018-04-07T05:06:36.675Z,62.53
2018-04-07T05:07:36.667Z,61.39
2018-04-07T05:08:36.661Z,61.10
2018-04-07T05:09:36.650Z,61.39
2018-04-07T05:10:57.656Z,60.53
2018-04-07T05:11:36.641Z,60.66
2018-04-07T05:12:36.642Z,60.47
2018-04-07T05:13:36.627Z,60.47
2018-04-07T05:14:36.627Z,60.66
2018-04-07T05:15:36.617Z,60.66
2018-04-07T05:16:57.623Z,59.52
2018-04-07T05:17:36.599Z,59.42
2018-04-07T05:18:36.602Z,59.23
2018-04-07T05:19:36.598Z,59.42
2018-04-07T05:20:36.588Z,59.05
2018-04-07T05:21:36.573Z,58.18
2018-04-07T05:22:57.580Z,58.09
2018-04-07T05:23:36.574Z,57.93
2018-04-07T05:24:36.563Z,57.84
2018-04-07T05:25:36.560Z,57.45
2018-04-07T05:26:36.551Z,56.72
2018-04-07T05:27:36.542Z,55.20
2018-04-07T05:28:57.545Z,54.94
2018-04-07T05:29:36.526Z,53.99
2018-04-07T05:30:36.529Z,53.70
2018-04-07T05:31:36.520Z,52.84
2018-04-07T05:32:36.523Z,52.66
2018-04-07T05:33:36.516Z,52.84
2018-04-07T05:34:57.515Z,52.59
2018-04-07T05:35:36.498Z,51.92
2018-04-07T05:36:36.493Z,51.73
2018-04-07T05:37:36.493Z,51.18
2018-04-07T05:38:36.492Z,50.42
2018-04-07T05:39:36.490Z,49.49
2018-04-07T05:40:57.490Z,48.73
2018-04-07T05:41:36.464Z,48.07
2018-04-07T05:42:36.468Z,48.07
2018-04-07T05:43:36.459Z,48.16
2018-04-07T05:44:36.455Z,47.52
2018-04-07T05:45:36.454Z,46.75
2018-04-07T05:46:57.463Z,46.01
2018-04-07T05:47:36.441Z,45.06
2018-04-07T05:48:36.443Z,44.67
2018-04-07T05:49:36.437Z,44.94
2018-04-07T05:50:36.424Z,44.96
2018-04-07T05:51:36.421Z,44.48
2018-04-07T05:52:57.433Z,43.72
2018-04-07T05:53:36.417Z,44.20
2018-04-07T05:54:36.410Z,44.10
2018-04-07T05:55:36.400Z,44.29
2018-04-07T05:56:36.400Z,44.20
2018-04-07T05:57:36.402Z,44.01
2018-04-07T05:58:57.404Z,44.38
2018-04-07T05:59:36.398Z,44.02
2018-04-07T06:00:36.392Z,43.84
2018-04-07T06:01:36.381Z,42.61
2018-04-07T06:02:36.384Z,42.04
2018-04-07T06:03:36.371Z,41.18
2018-04-07T06:04:57.378Z,41.18
2018-04-07T06:05:36.372Z,41.47
2018-04-07T06:06:36.413Z,41.18
2018-04-07T06:07:36.364Z,41.56
2018-04-07T06:08:36.372Z,41.56
2018-04-07T06:09:36.364Z,41.83
2018-04-07T06:10:57.365Z,42.02
2018-04-07T06:11:36.351Z,41.95
2018-04-07T06:12:36.353Z,41.39
2018-04-07T06:13:36.352Z,41.20
2018-04-07T06:14:36.346Z,41.11
2018-04-07T06:15:36.343Z,41.20
2018-04-07T06:16:57.370Z,40.99
2018-04-07T06:17:36.341Z,41.11
2018-04-07T06:18:36.337Z,41.20
2018-04-07T06:19:36.327Z,40.34
2018-04-07T06:20:36.336Z,40.32
2018-04-07T06:21:36.328Z,40.63
2018-04-07T06:22:57.355Z,40.34
2018-04-07T06:23:36.324Z,40.42
2018-04-07T06:24:36.322Z,40.69
2018-04-07T06:25:36.314Z,40.88
2018-04-07T06:26:36.319Z,41.55
2018-04-07T06:27:36.315Z,42.29
2018-04-07T06:28:57.324Z,42.40
2018-04-07T06:29:36.316Z,42.29
2018-04-07T06:30:36.305Z,42.86
2018-04-07T06:31:36.326Z,43.33
2018-04-07T06:32:36.305Z,43.98
2018-04-07T06:33:36.304Z,43.70
2018-04-07T06:34:57.323Z,44.25
2018-04-07T06:35:36.303Z,44.84
2018-04-07T06:36:36.297Z,44.56
2018-04-07T06:37:36.291Z,45.03
2018-04-07T06:38:36.299Z,44.94
2018-04-07T06:39:36.287Z,44.94
2018-04-07T06:40:57.296Z,44.56
2018-04-07T06:41:36.286Z,43.89
2018-04-07T06:42:36.282Z,43.91
2018-04-07T06:43:36.323Z,43.82
2018-04-07T06:44:36.280Z,42.79
2018-04-07T06:45:36.273Z,42.40
2018-04-07T06:46:57.284Z,42.11
2018-04-07T06:47:36.271Z,41.30
2018-04-07T06:48:36.269Z,39.98
2018-04-07T06:49:36.275Z,39.22
2018-04-07T06:50:36.262Z,38.83
2018-04-07T06:51:36.254Z,38.09
2018-04-07T06:52:57.268Z,37.63
2018-04-07T06:53:36.260Z,36.96
2018-04-07T06:54:36.265Z,36.40
2018-04-07T06:55:36.260Z,35.65
2018-04-07T06:56:36.259Z,34.98
2018-04-07T06:57:36.266Z,34.74
2018-04-07T06:58:57.262Z,36.77
2018-04-07T06:59:36.246Z,36.11
2018-04-07T07:00:36.283Z,34.69
2018-04-07T07:01:36.247Z,34.85
2018-04-07T07:02:36.254Z,35.88
2018-04-07T07:03:36.254Z,36.11
2018-04-07T07:04:57.259Z,35.25
2018-04-07T07:05:36.246Z,35.06
2018-04-07T07:06:36.251Z,35.36
2018-04-07T07:07:36.254Z,35.08
2018-04-07T07:08:36.251Z,34.58
2018-04-07T07:09:36.249Z,34.04
2018-04-07T07:10:57.255Z,33.25
2018-04-07T07:11:36.250Z,33.72
2018-04-07T07:12:36.247Z,34.59
2018-04-07T07:13:36.266Z,34.20
2018-04-07T07:14:36.242Z,34.79
2018-04-07T07:15:36.259Z,34.58
2018-04-07T07:16:57.263Z,33.86
2018-04-07T07:17:36.263Z,32.44
2018-04-07T07:18:36.251Z,31.48
2018-04-07T07:19:36.253Z,31.79
2018-04-07T07:20:36.258Z,31.23
2018-04-07T07:21:36.261Z,30.14
2018-04-07T07:22:57.268Z,32.10
2018-04-07T07:23:36.256Z,33.09
2018-04-07T07:24:36.255Z,31.08
2018-04-07T07:25:36.266Z,31.40
2018-04-07T07:26:36.254Z,30.36
2018-04-07T07:27:36.265Z,29.85
2018-04-07T07:28:57.281Z,30.14
2018-04-07T07:29:36.311Z,30.05
2018-04-07T07:30:36.268Z,29.59
2018-04-07T07:31:36.276Z,29.22
2018-04-07T07:32:36.285Z,28.84
2018-04-07T07:33:36.278Z,28.07
2018-04-07T07:34:57.290Z,29.02
2018-04-07T07:35:36.284Z,29.19
2018-04-07T07:36:36.282Z,29.67
2018-04-07T07:37:36.289Z,30.23
2018-04-07T07:38:36.283Z,30.30
2018-04-07T07:39:36.300Z,31.99
2018-04-07T07:40:57.302Z,33.99
2018-04-07T07:41:36.292Z,35.02
2018-04-07T07:42:36.295Z,35.96
2018-04-07T07:43:36.297Z,36.63
2018-04-07T07:44:36.289Z,36.90
2018-04-07T07:45:36.297Z,38.34
2018-04-07T07:46:57.317Z,38.32
2018-04-07T07:47:36.300Z,39.08
2018-04-07T07:48:36.306Z,39.83
2018-04-07T07:49:36.301Z,41.26
2018-04-07T07:50:36.304Z,41.05
2018-04-07T07:51:36.307Z,41.05
2018-04-07T07:52:57.319Z,41.14
2018-04-07T07:53:36.307Z,41.71
2018-04-07T07:54:36.303Z,42.00
2018-04-07T07:55:36.307Z,42.19
2018-04-07T07:56:36.310Z,41.71
2018-04-07T07:57:36.309Z,41.71
2018-04-07T07:58:57.320Z,41.14
2018-04-07T07:59:36.310Z,41.33
2018-04-07T08:00:36.302Z,41.24
2018-04-07T08:01:36.312Z,41.33
2018-04-07T08:02:36.308Z,41.05
2018-04-07T08:03:36.302Z,40.37
2018-04-07T08:04:57.324Z,40.00
2018-04-07T08:05:36.304Z,40.66
2018-04-07T08:06:36.301Z,40.95
2018-04-07T08:07:36.311Z,40.00
2018-04-07T08:08:36.302Z,40.00
2018-04-07T08:09:36.300Z,39.90
2018-04-07T08:10:57.312Z,40.09
2018-04-07T08:11:36.294Z,39.71
2018-04-07T08:12:36.299Z,40.95
2018-04-07T08:13:36.302Z,40.37
2018-04-07T08:14:36.291Z,40.19
2018-04-07T08:15:36.306Z,40.47
2018-04-07T08:16:57.310Z,39.90
2018-04-07T08:17:36.293Z,40.00
2018-04-07T08:18:36.284Z,39.52
2018-04-07T08:19:36.288Z,39.81
2018-04-07T08:20:36.335Z,40.01
2018-04-07T08:21:36.287Z,39.61
2018-04-07T08:22:57.301Z,39.71
2018-04-07T08:23:36.290Z,39.42
2018-04-07T08:24:36.279Z,39.83
2018-04-07T08:25:36.274Z,39.32
2018-04-07T08:26:36.284Z,39.32
2018-04-07T08:27:36.281Z,38.95
2018-04-07T08:28:57.283Z,39.32
2018-04-07T08:29:36.275Z,39.32
2018-04-07T08:30:36.269Z,39.32
2018-04-07T08:31:36.271Z,39.32
2018-04-07T08:32:36.269Z,39.44
2018-04-07T08:33:36.274Z,39.44
2018-04-07T08:34:57.281Z,38.96
2018-04-07T08:35:36.266Z,39.64
2018-04-07T08:36:36.273Z,39.25
2018-04-07T08:37:36.266Z,38.96
2018-04-07T08:38:36.267Z,38.68
2018-04-07T08:39:36.283Z,38.78
2018-04-07T08:40:57.269Z,38.68
2018-04-07T08:41:36.249Z,39.06
2018-04-07T08:42:36.252Z,38.96
2018-04-07T08:43:36.262Z,38.68
2018-04-07T08:44:36.252Z,38.70
2018-04-07T08:45:36.253Z,38.32
2018-04-07T08:46:57.263Z,38.51
2018-04-07T08:47:36.248Z,38.32
2018-04-07T08:48:36.244Z,38.98
2018-04-07T08:49:36.244Z,38.22
2018-04-07T08:50:36.245Z,37.55
2018-04-07T08:51:36.237Z,37.74
2018-04-07T08:52:57.246Z,37.55
2018-04-07T08:53:36.231Z,37.26
2018-04-07T08:54:36.226Z,38.03
2018-04-07T08:55:36.231Z,37.55
2018-04-07T08:56:36.249Z,36.88
2018-04-07T08:57:36.234Z,36.69
2018-04-07T08:58:57.248Z,37.55
2018-04-07T08:59:36.225Z,37.84
2018-04-07T09:00:36.231Z,37.55
2018-04-07T09:01:36.222Z,38.32
2018-04-07T09:02:36.229Z,38.22
2018-04-07T09:03:36.224Z,37.26
2018-04-07T09:04:57.228Z,36.96
2018-04-07T09:05:36.217Z,37.93
2018-04-07T09:06:36.216Z,38.03
2018-04-07T09:07:36.224Z,37.74
2018-04-07T09:08:36.211Z,38.03
2018-04-07T09:09:36.215Z,37.17
2018-04-07T09:10:57.217Z,37.66
2018-04-07T09:11:36.208Z,37.09
2018-04-07T09:12:36.201Z,37.57
2018-04-07T09:13:36.210Z,37.38
2018-04-07T09:14:36.201Z,36.99
2018-04-07T09:15:36.198Z,37.09
2018-04-07T09:16:57.205Z,36.50
2018-04-07T09:17:36.208Z,36.52
2018-04-07T09:18:36.193Z,36.80
2018-04-07T09:19:36.198Z,36.80
2018-04-07T09:20:36.190Z,36.61
2018-04-07T09:21:36.196Z,36.04
2018-04-07T09:22:57.208Z,36.14
2018-04-07T09:23:36.200Z,36.52
2018-04-07T09:24:36.186Z,37.09
2018-04-07T09:25:36.189Z,36.99
2018-04-07T09:26:36.190Z,36.33
2018-04-07T09:27:36.187Z,36.14
2018-04-07T09:28:57.199Z,36.43
2018-04-07T09:29:36.191Z,36.71
2018-04-07T09:30:36.182Z,36.80
2018-04-07T09:31:36.185Z,35.66
2018-04-07T09:32:36.185Z,35.08
2018-04-07T09:33:36.182Z,34.61
2018-04-07T09:34:57.182Z,35.18
2018-04-07T09:35:36.181Z,34.51
2018-04-07T09:36:36.172Z,36.33
2018-04-07T09:37:36.180Z,36.15
2018-04-07T09:38:36.180Z,35.96
2018-04-07T09:39:36.174Z,36.73
2018-04-07T09:40:57.180Z,35.58
2018-04-07T09:41:36.168Z,35.96
2018-04-07T09:42:36.162Z,35.79
2018-04-07T09:43:36.168Z,35.69
2018-04-07T09:44:36.161Z,33.86
2018-04-07T09:45:36.161Z,34.34
2018-04-07T09:46:57.182Z,33.76
2018-04-07T09:47:36.166Z,33.67
2018-04-07T09:48:36.172Z,33.30
2018-04-07T09:49:36.163Z,34.64
2018-04-07T09:50:36.160Z,34.36
2018-04-07T09:51:36.159Z,33.40
2018-04-07T09:52:57.162Z,33.69
2018-04-07T09:53:36.156Z,33.78
2018-04-07T09:54:36.156Z,34.83
2018-04-07T09:55:36.160Z,34.55
2018-04-07T09:56:36.160Z,34.45
2018-04-07T09:57:36.151Z,34.06
2018-04-07T09:58:57.168Z,34.06
2018-04-07T09:59:36.148Z,33.30
2018-04-07T10:00:36.149Z,33.59
2018-04-07T10:01:36.148Z,34.37
2018-04-07T10:02:36.158Z,33.80
2018-04-07T10:03:36.153Z,33.41
2018-04-07T10:04:57.157Z,33.80
2018-04-07T10:05:36.158Z,33.70
2018-04-07T10:06:36.161Z,32.17
2018-04-07T10:07:36.146Z,32.26
2018-04-07T10:08:36.143Z,32.26
2018-04-07T10:09:36.146Z,32.84
2018-04-07T10:10:57.155Z,32.75
2018-04-07T10:11:36.147Z,32.75
2018-04-07T10:12:36.139Z,33.32
2018-04-07T10:13:36.163Z,34.18
2018-04-07T10:14:36.148Z,33.22
2018-04-07T10:15:36.144Z,33.12
2018-04-07T10:16:57.153Z,32.93
2018-04-07T10:17:36.143Z,33.32
2018-04-07T10:18:36.141Z,33.41
2018-04-07T10:19:36.143Z,32.36
2018-04-07T10:20:36.150Z,32.55
2018-04-07T10:21:36.139Z,32.55
2018-04-07T10:22:57.153Z,32.26
2018-04-07T10:23:36.149Z,32.46
2018-04-07T10:24:36.143Z,31.02
2018-04-07T10:25:36.145Z,31.30
2018-04-07T10:26:36.129Z,31.61
2018-04-07T10:27:36.133Z,32.67
2018-04-07T10:28:57.142Z,32.38
2018-04-07T10:29:36.139Z,33.14
2018-04-07T10:30:36.147Z,32.76
2018-04-07T10:31:36.145Z,33.24
2018-04-07T10:32:36.137Z,34.39
2018-04-07T10:33:36.181Z,32.76
2018-04-07T10:34:57.150Z,33.14
2018-04-07T10:35:36.133Z,32.18
2018-04-07T10:36:36.145Z,32.67
2018-04-07T10:37:36.142Z,32.28
2018-04-07T10:38:36.135Z,31.71
2018-04-07T10:39:36.126Z,32.76
2018-04-07T10:40:57.143Z,33.33
2018-04-07T10:41:36.143Z,33.35
2018-04-07T10:42:36.134Z,32.10
2018-04-07T10:43:36.131Z,32.20
2018-04-07T10:44:36.141Z,32.78
2018-04-07T10:45:36.143Z,32.78
2018-04-07T10:46:57.145Z,32.41
2018-04-07T10:47:36.132Z,32.79
2018-04-07T10:48:36.137Z,32.79
2018-04-07T10:49:36.141Z,32.41
2018-04-07T10:50:36.127Z,32.41
2018-04-07T10:51:36.137Z,31.74
2018-04-07T10:52:57.148Z,31.84
2018-04-07T10:53:36.133Z,32.12
2018-04-07T10:54:36.135Z,30.76
2018-04-07T10:55:36.137Z,31.64
2018-04-07T10:56:36.134Z,31.84
2018-04-07T10:57:36.133Z,31.82
2018-04-07T10:58:57.139Z,32.51
2018-04-07T10:59:36.139Z,31.74
2018-04-07T11:00:36.140Z,30.87
2018-04-07T11:01:36.135Z,32.03
2018-04-07T11:02:36.134Z,31.93
2018-04-07T11:03:36.136Z,31.08
2018-04-07T11:04:57.136Z,31.27
2018-04-07T11:05:36.145Z,30.49
2018-04-07T11:06:36.141Z,30.87
2018-04-07T11:07:36.135Z,32.12
2018-04-07T11:08:36.133Z,30.99
2018-04-07T11:09:36.145Z,31.75
2018-04-07T11:10:57.149Z,30.78
2018-04-07T11:11:36.138Z,30.58
2018-04-07T11:12:36.139Z,30.99
2018-04-07T11:13:36.134Z,31.75
2018-04-07T11:14:36.146Z,31.56
2018-04-07T11:15:36.141Z,30.60
2018-04-07T11:16:57.148Z,30.89
2018-04-07T11:17:36.141Z,31.27
2018-04-07T11:18:36.156Z,30.99
2018-04-07T11:19:36.139Z,30.99
2018-04-07T11:20:36.144Z,31.87
2018-04-07T11:21:36.151Z,30.51
2018-04-07T11:22:57.155Z,30.79
2018-04-07T11:23:36.143Z,30.32
2018-04-07T11:24:36.152Z,30.41
2018-04-07T11:25:36.140Z,31.96
2018-04-07T11:26:36.143Z,31.00
2018-04-07T11:27:36.153Z,30.62
2018-04-07T11:28:57.159Z,30.90
2018-04-07T11:29:36.146Z,31.20
2018-04-07T11:30:36.149Z,30.52
2018-04-07T11:31:36.155Z,30.62
2018-04-07T11:32:36.153Z,30.62
2018-04-07T11:33:36.156Z,29.94
2018-04-07T11:34:57.166Z,30.52
2018-04-07T11:35:36.156Z,31.87
2018-04-07T11:36:36.159Z,31.10
2018-04-07T11:37:36.153Z,30.04
2018-04-07T11:38:36.167Z,29.85
2018-04-07T11:39:36.155Z,30.04
2018-04-07T11:40:57.169Z,30.14
2018-04-07T11:41:36.160Z,31.21
2018-04-07T11:42:36.157Z,30.73
2018-04-07T11:43:36.166Z,30.73
2018-04-07T11:44:36.158Z,30.54
2018-04-07T11:45:36.184Z,29.77
2018-04-07T11:46:57.177Z,30.17
2018-04-07T11:47:36.166Z,30.36
2018-04-07T11:48:36.185Z,29.58
2018-04-07T11:49:36.171Z,29.79
2018-04-07T11:50:36.169Z,28.91
2018-04-07T11:51:36.177Z,29.58
2018-04-07T11:52:57.174Z,29.79
2018-04-07T11:53:36.170Z,29.59
2018-04-07T11:54:36.177Z,29.49
2018-04-07T11:55:36.171Z,30.17
2018-04-07T11:56:36.180Z,29.49
2018-04-07T11:57:36.184Z,29.11
2018-04-07T11:58:57.192Z,29.77
2018-04-07T11:59:36.182Z,29.58
2018-04-07T12:00:36.186Z,29.77
2018-04-07T12:01:36.185Z,31.51
2018-04-07T12:02:36.183Z,30.17
2018-04-07T12:03:36.188Z,29.97
2018-04-07T12:04:57.193Z,29.59
2018-04-07T12:05:36.185Z,30.36
2018-04-07T12:06:36.194Z,30.46
2018-04-07T12:07:36.190Z,30.55
2018-04-07T12:08:36.191Z,29.69
2018-04-07T12:09:36.193Z,29.69
2018-04-07T12:10:57.203Z,29.79
2018-04-07T12:11:36.233Z,29.69
2018-04-07T12:12:36.201Z,29.49
2018-04-07T12:13:36.200Z,29.59
2018-04-07T12:14:36.202Z,29.97
2018-04-07T12:15:36.196Z,29.59
2018-04-07T12:16:57.211Z,29.69
2018-04-07T12:17:36.206Z,29.49
2018-04-07T12:18:36.214Z,29.51
2018-04-07T12:19:36.207Z,29.61
2018-04-07T12:20:36.208Z,29.13
2018-04-07T12:21:36.214Z,29.03
2018-04-07T12:22:57.225Z,29.03
2018-04-07T12:23:36.214Z,29.03
2018-04-07T12:24:36.224Z,29.90
2018-04-07T12:25:36.222Z,30.68
2018-04-07T12:26:36.214Z,30.39
2018-04-07T12:27:36.223Z,29.91
2018-04-07T12:28:57.233Z,28.93
2018-04-07T12:29:36.227Z,28.74
2018-04-07T12:30:36.226Z,30.28
2018-04-07T12:31:36.224Z,30.08
2018-04-07T12:32:36.239Z,30.47
2018-04-07T12:33:36.234Z,30.10
2018-04-07T12:34:57.244Z,29.03
2018-04-07T12:35:36.239Z,29.90
2018-04-07T12:36:36.243Z,30.76
2018-04-07T12:37:36.241Z,29.91
2018-04-07T12:38:36.242Z,29.52
2018-04-07T12:39:36.251Z,29.81
2018-04-07T12:40:57.265Z,30.10
2018-04-07T12:41:36.246Z,29.72
2018-04-07T12:42:36.252Z,29.43
2018-04-07T12:43:36.245Z,29.14
2018-04-07T12:44:36.250Z,27.98
2018-04-07T12:45:36.259Z,28.56
2018-04-07T12:46:57.270Z,28.56
2018-04-07T12:47:36.260Z,28.37
2018-04-07T12:48:36.256Z,29.15
2018-04-07T12:49:36.262Z,28.85
2018-04-07T12:50:36.267Z,28.48
2018-04-07T12:51:36.277Z,28.96
2018-04-07T12:52:57.276Z,28.48